createdAt,value
2022-12-11T00:02:39.620Z,3.23
2022-12-11T00:05:45.901Z,4.27
2022-12-11T00:08:54.369Z,4.10
2022-12-11T00:11:59.793Z,2.71
2022-12-11T00:15:05.513Z,2.12
2022-12-11T00:18:13.264Z,3.18
2022-12-11T00:21:18.677Z,4.01
2022-12-11T00:24:23.914Z,2.86
2022-12-11T00:27:29.871Z,1.90
2022-12-11T00:30:35.139Z,2.47
2022-12-11T00:33:40.531Z,3.58
2022-12-11T00:36:45.964Z,3.65
2022-12-11T00:39:51.377Z,2.41
2022-12-11T00:42:56.677Z,1.64
2022-12-11T00:46:02.129Z,2.34
2022-12-11T00:49:07.598Z,3.20
2022-12-11T00:52:12.973Z,3.96
2022-12-11T00:55:18.423Z,4.13
2022-12-11T00:58:23.874Z,2.86
2022-12-11T01:01:30.377Z,2.02
2022-12-11T01:04:37.579Z,3.00
2022-12-11T01:07:43.433Z,3.94
2022-12-11T01:10:49.077Z,3.04
2022-12-11T01:13:54.400Z,1.88
2022-12-11T01:16:59.753Z,1.29
2022-12-11T01:20:05.655Z,2.38
2022-12-11T01:23:13.081Z,3.72
2022-12-11T01:26:18.708Z,4.01
2022-12-11T01:29:24.047Z,2.54
2022-12-11T01:32:29.710Z,1.98
2022-12-11T01:35:34.957Z,3.06
2022-12-11T01:38:40.250Z,3.94
2022-12-11T01:41:45.729Z,3.70
2022-12-11T01:45:08.436Z,2.64
2022-12-11T01:48:17.077Z,1.60
2022-12-11T01:51:23.024Z,2.09
2022-12-11T01:54:29.464Z,3.46
2022-12-11T01:57:34.721Z,3.67
2022-12-11T02:00:40.200Z,2.63
2022-12-11T02:03:45.647Z,2.28
2022-12-11T02:06:52.934Z,3.50
2022-12-11T02:09:58.448Z,3.94
2022-12-11T02:13:08.705Z,2.86
2022-12-11T02:16:20.504Z,1.72
2022-12-11T02:19:39.339Z,1.30
2022-12-11T02:23:00.124Z,2.74
2022-12-11T02:26:11.129Z,3.60
2022-12-11T02:29:21.040Z,2.45
2022-12-11T02:32:28.138Z,1.96
2022-12-11T02:35:35.124Z,3.29
2022-12-11T02:38:42.762Z,3.59
2022-12-11T02:41:50.071Z,2.30
2022-12-11T02:44:57.821Z,1.28
2022-12-11T02:48:05.850Z,1.00
2022-12-11T02:51:12.253Z,2.18
2022-12-11T02:54:20.669Z,3.54
2022-12-11T02:57:29.027Z,3.41
2022-12-11T03:00:34.621Z,2.18
2022-12-11T03:03:40.027Z,1.82
2022-12-11T03:06:47.660Z,3.31
2022-12-11T03:09:53.209Z,3.22
2022-12-11T03:12:59.907Z,2.04
2022-12-11T03:16:12.107Z,1.09
2022-12-11T03:19:20.205Z,1.91
2022-12-11T03:22:28.802Z,3.27
2022-12-11T03:25:37.608Z,3.57
2022-12-11T03:28:45.651Z,2.25
2022-12-11T03:31:54.962Z,1.27
2022-12-11T03:35:04.585Z,2.05
2022-12-11T03:38:13.871Z,3.19
2022-12-11T03:41:20.425Z,3.64
2022-12-11T03:44:27.570Z,2.69
2022-12-11T03:47:33.630Z,1.56
2022-12-11T03:50:39.802Z,2.11
2022-12-11T03:53:46.232Z,3.30
2022-12-11T03:56:52.147Z,2.47
2022-12-11T03:59:57.607Z,1.40
2022-12-11T04:03:16.045Z,0.87
2022-12-11T04:06:21.490Z,1.97
2022-12-11T04:09:26.843Z,3.13
2022-12-11T04:12:32.195Z,3.13
2022-12-11T04:15:37.927Z,2.10
2022-12-11T04:19:00.751Z,1.21
2022-12-11T04:22:29.278Z,0.59
2022-12-11T04:25:34.583Z,1.69
2022-12-11T04:28:40.630Z,2.77
2022-12-11T04:31:47.332Z,2.86
2022-12-11T04:34:52.658Z,1.70
2022-12-11T04:37:58.615Z,1.81
2022-12-11T04:41:07.070Z,2.96
2022-12-11T04:44:12.405Z,2.76
2022-12-11T04:47:17.754Z,1.73
2022-12-11T04:50:23.210Z,0.93
2022-12-11T04:53:28.909Z,1.78
2022-12-11T04:56:34.149Z,2.92
2022-12-11T04:59:39.837Z,1.80
2022-12-11T05:02:45.123Z,0.95
2022-12-11T05:05:50.839Z,1.39
2022-12-11T05:08:56.305Z,2.79
2022-12-11T05:12:01.781Z,2.61
2022-12-11T05:15:08.771Z,1.31
2022-12-11T05:18:14.501Z,1.21
2022-12-11T05:21:19.833Z,2.65
2022-12-11T05:24:25.146Z,2.45
2022-12-11T05:27:30.490Z,1.46
2022-12-11T05:30:35.696Z,0.62
2022-12-11T05:33:41.686Z,1.36
2022-12-11T05:36:47.301Z,2.84
2022-12-11T05:39:52.630Z,3.14
2022-12-11T05:42:58.302Z,1.79
2022-12-11T05:46:08.011Z,1.39
2022-12-11T05:49:13.423Z,2.70
2022-12-11T05:52:18.874Z,2.84
2022-12-11T05:55:24.143Z,1.53
2022-12-11T05:58:29.564Z,1.76
2022-12-11T06:01:36.184Z,3.16
2022-12-11T06:04:41.696Z,2.60
2022-12-11T06:07:47.071Z,1.55
2022-12-11T06:10:52.645Z,1.09
2022-12-11T06:13:58.306Z,2.45
2022-12-11T06:17:03.771Z,3.67
2022-12-11T06:20:09.543Z,2.63
2022-12-11T06:23:14.881Z,1.37
2022-12-11T06:26:20.871Z,1.86
2022-12-11T06:29:26.306Z,3.35
2022-12-11T06:32:31.566Z,1.97
2022-12-11T06:35:42.100Z,1.45
2022-12-11T06:38:48.631Z,3.01
2022-12-11T06:41:54.359Z,2.56
2022-12-11T06:44:59.923Z,1.35
2022-12-11T06:48:05.348Z,0.98
2022-12-11T06:51:12.475Z,1.89
2022-12-11T06:54:17.825Z,2.91
2022-12-11T06:57:23.139Z,3.18
2022-12-11T07:00:28.868Z,1.54
2022-12-11T07:03:34.108Z,1.08
2022-12-11T07:06:39.433Z,1.94
2022-12-11T07:09:44.691Z,2.66
2022-12-11T07:12:50.005Z,2.12
2022-12-11T07:15:55.350Z,1.11
2022-12-11T07:19:00.657Z,1.07
2022-12-11T07:22:06.001Z,2.14
2022-12-11T07:25:11.869Z,2.54
2022-12-11T07:28:17.409Z,1.16
2022-12-11T07:31:23.886Z,0.46
2022-12-11T07:34:29.417Z,1.47
2022-12-11T07:37:34.681Z,2.68
2022-12-11T07:40:40.043Z,2.21
2022-12-11T07:43:45.497Z,0.67
2022-12-11T07:46:50.859Z,0.48
2022-12-11T07:49:56.447Z,1.36
2022-12-11T07:53:02.900Z,2.27
2022-12-11T07:56:09.070Z,1.35
2022-12-11T07:59:14.849Z,0.32
2022-12-11T08:02:20.108Z,0.63
2022-12-11T08:05:25.605Z,2.14
2022-12-11T08:08:30.941Z,1.95
2022-12-11T08:11:38.407Z,0.39
2022-12-11T08:14:43.605Z,0.77
2022-12-11T08:17:48.962Z,2.28
2022-12-11T08:20:54.442Z,1.95
2022-12-11T08:23:59.737Z,0.72
2022-12-11T08:27:05.544Z,-0.05
2022-12-11T08:30:11.717Z,0.12
2022-12-11T08:33:18.135Z,1.80
2022-12-11T08:36:23.772Z,2.48
2022-12-11T08:39:29.171Z,1.51
2022-12-11T08:42:35.076Z,0.50
2022-12-11T08:45:40.632Z,-0.14
2022-12-11T08:48:46.001Z,1.17
2022-12-11T08:51:51.283Z,2.43
2022-12-11T08:54:56.512Z,1.50
2022-12-11T08:58:01.783Z,0.71
2022-12-11T09:01:11.135Z,1.62
2022-12-11T09:04:16.416Z,2.52
2022-12-11T09:07:21.879Z,1.55
2022-12-11T09:10:27.359Z,0.52
2022-12-11T09:13:32.713Z,-0.04
2022-12-11T09:16:40.464Z,1.07
2022-12-11T09:19:46.394Z,2.64
2022-12-11T09:22:51.830Z,2.90
2022-12-11T09:25:57.450Z,1.50
2022-12-11T09:29:03.638Z,0.53
2022-12-11T09:32:08.994Z,0.93
2022-12-11T09:35:14.325Z,2.53
2022-12-11T09:38:19.810Z,2.44
2022-12-11T09:41:41.577Z,1.35
2022-12-11T09:44:48.031Z,0.69
2022-12-11T09:47:55.353Z,1.59
2022-12-11T09:51:06.420Z,2.87
2022-12-11T09:54:13.897Z,2.19
2022-12-11T09:57:25.091Z,1.27
2022-12-11T10:00:34.898Z,2.16
2022-12-11T10:03:52.157Z,3.16
2022-12-11T10:07:02.396Z,2.19
2022-12-11T10:10:18.101Z,1.22
2022-12-11T10:13:29.086Z,1.15
2022-12-11T10:16:37.525Z,2.62
2022-12-11T10:19:43.326Z,1.93
2022-12-11T10:22:49.540Z,0.96
2022-12-11T10:25:58.621Z,0.84
2022-12-11T10:29:04.083Z,2.28
2022-12-11T10:32:16.990Z,3.08
2022-12-11T10:35:28.091Z,2.14
2022-12-11T10:38:34.448Z,1.09
2022-12-11T10:41:40.999Z,1.61
2022-12-11T10:44:57.709Z,2.83
2022-12-11T10:48:07.011Z,4.08
2022-12-11T10:51:12.614Z,3.37
2022-12-11T10:59:02.421Z,0.82
2022-12-11T11:02:18.630Z,1.69
2022-12-11T11:05:30.456Z,3.25
2022-12-11T11:08:41.011Z,3.36
2022-12-11T11:11:50.958Z,2.33
2022-12-11T11:15:03.597Z,1.32
2022-12-11T11:18:13.988Z,1.99
2022-12-11T11:21:20.367Z,3.27
2022-12-11T11:24:28.889Z,2.62
2022-12-11T11:27:37.134Z,1.53
2022-12-11T11:30:43.162Z,1.13
2022-12-11T11:33:53.783Z,1.73
2022-12-11T11:37:05.610Z,3.26
2022-12-11T11:40:14.804Z,2.59
2022-12-11T11:43:24.197Z,1.54
2022-12-11T11:46:33.580Z,1.50
2022-12-11T11:49:45.829Z,3.09
2022-12-11T11:52:58.913Z,3.26
2022-12-11T11:56:08.418Z,2.17
2022-12-11T11:59:19.770Z,1.27
2022-12-11T12:02:25.464Z,0.86
2022-12-11T12:05:37.870Z,1.70
2022-12-11T12:08:47.938Z,2.58
2022-12-11T12:11:58.384Z,1.72
2022-12-11T12:15:11.243Z,0.86
2022-12-11T12:18:21.928Z,1.74
2022-12-11T12:21:32.218Z,2.66
2022-12-11T12:24:41.684Z,1.37
2022-12-11T12:27:53.256Z,0.83
2022-12-11T12:31:05.934Z,1.68
2022-12-11T12:34:19.165Z,3.15
2022-12-11T12:37:44.016Z,2.18
2022-12-11T12:40:57.938Z,1.16
2022-12-11T12:44:10.166Z,0.84
2022-12-11T12:47:20.519Z,2.24
2022-12-11T12:50:28.903Z,2.27
2022-12-11T12:53:39.597Z,1.49
2022-12-11T12:56:47.067Z,0.79
2022-12-11T12:59:56.546Z,1.71
2022-12-11T13:03:03.621Z,2.87
2022-12-11T13:06:10.563Z,2.67
2022-12-11T13:09:18.164Z,1.47
2022-12-11T13:12:33.162Z,0.83
2022-12-11T13:15:40.921Z,1.57
2022-12-11T13:18:47.635Z,2.85
2022-12-11T13:21:58.513Z,2.68
2022-12-11T13:25:18.019Z,1.60
2022-12-11T13:28:27.277Z,1.34
2022-12-11T13:31:33.899Z,2.62
2022-12-11T13:34:41.453Z,3.23
2022-12-11T13:37:48.048Z,2.39
2022-12-11T13:40:55.071Z,1.45
2022-12-11T13:44:01.147Z,1.33
2022-12-11T13:47:08.173Z,2.24
2022-12-11T13:50:16.264Z,3.31
2022-12-11T13:53:22.529Z,2.38
2022-12-11T13:56:27.851Z,1.64
2022-12-11T13:59:34.929Z,2.63
2022-12-11T14:02:42.574Z,3.84
2022-12-11T14:05:48.182Z,3.96
2022-12-11T14:08:55.226Z,2.87
2022-12-11T14:12:00.674Z,1.82
2022-12-11T14:15:06.838Z,2.72
2022-12-11T14:18:16.103Z,3.93
2022-12-11T14:21:22.751Z,3.24
2022-12-11T14:24:28.362Z,2.12
2022-12-11T14:27:34.281Z,1.91
2022-12-11T14:30:40.321Z,2.91
2022-12-11T14:33:49.088Z,3.70
2022-12-11T14:36:55.541Z,2.89
2022-12-11T14:40:02.246Z,2.16
2022-12-11T14:43:09.491Z,2.97
2022-12-11T14:46:18.251Z,3.58
2022-12-11T14:49:25.679Z,2.81
2022-12-11T14:52:34.090Z,1.93
2022-12-11T14:55:39.909Z,2.48
2022-12-11T14:58:49.331Z,3.47
2022-12-11T15:02:05.171Z,3.20
2022-12-11T15:05:15.395Z,1.90
2022-12-11T15:08:25.025Z,2.40
2022-12-11T15:11:33.142Z,3.15
2022-12-11T15:14:43.368Z,3.55
2022-12-11T15:17:52.847Z,2.79
2022-12-11T15:21:00.618Z,1.85
2022-12-11T15:24:08.442Z,2.31
2022-12-11T15:27:22.888Z,3.28
2022-12-11T15:30:29.783Z,3.56
2022-12-11T15:33:46.270Z,2.37
2022-12-11T15:36:51.874Z,2.70
2022-12-11T15:39:58.807Z,3.42
2022-12-11T15:43:04.375Z,2.94
2022-12-11T15:46:09.980Z,1.89
2022-12-11T15:49:15.309Z,2.57
2022-12-11T15:52:20.963Z,2.94
2022-12-11T15:55:36.149Z,3.13
2022-12-11T15:58:41.718Z,2.68
2022-12-11T16:01:47.269Z,3.31
2022-12-11T16:04:52.777Z,3.42
2022-12-11T16:07:59.644Z,2.35
2022-12-11T16:11:05.209Z,2.48
2022-12-11T16:14:10.579Z,3.12
2022-12-11T16:17:16.651Z,3.74
2022-12-11T16:20:22.075Z,2.92
2022-12-11T16:23:29.491Z,1.72
2022-12-11T16:26:34.893Z,2.38
2022-12-11T16:29:42.132Z,3.27
2022-12-11T16:32:47.423Z,4.17
2022-12-11T16:35:53.016Z,3.93
2022-12-11T16:38:58.390Z,2.43
2022-12-11T16:42:03.749Z,2.33
2022-12-11T16:45:12.204Z,2.88
2022-12-11T16:48:17.618Z,3.45
2022-12-11T16:51:23.011Z,3.89
2022-12-11T16:54:28.263Z,3.87
2022-12-11T16:57:34.614Z,2.33
2022-12-11T17:00:40.033Z,2.42
2022-12-11T17:03:45.411Z,3.46
2022-12-11T17:06:50.810Z,4.18
2022-12-11T17:09:57.363Z,3.29
2022-12-11T17:13:02.730Z,2.85
2022-12-11T17:16:09.102Z,4.04
2022-12-11T17:19:14.475Z,3.75
2022-12-11T17:22:19.876Z,2.33
2022-12-11T17:25:25.301Z,3.02
2022-12-11T17:28:30.536Z,4.17
2022-12-11T17:31:35.955Z,3.40
2022-12-11T17:34:41.280Z,2.37
2022-12-11T17:37:47.348Z,3.03
2022-12-11T17:40:52.722Z,3.34
2022-12-11T17:43:58.024Z,3.70
2022-12-11T17:47:09.152Z,3.81
2022-12-11T17:50:16.452Z,3.38
2022-12-11T17:53:22.226Z,3.28
2022-12-11T17:56:28.314Z,3.40
2022-12-11T17:59:36.441Z,3.64
2022-12-11T18:02:41.616Z,3.78
2022-12-11T18:05:47.740Z,3.97
2022-12-11T18:08:53.127Z,4.19
2022-12-11T18:11:58.583Z,3.30
2022-12-11T18:15:04.198Z,2.99
2022-12-11T18:18:09.766Z,3.85
2022-12-11T18:21:16.622Z,4.20
2022-12-11T18:24:22.419Z,3.38
2022-12-11T18:27:27.859Z,2.93
2022-12-11T18:30:33.312Z,3.17
2022-12-11T18:33:39.501Z,3.71
2022-12-11T18:36:44.834Z,3.86
2022-12-11T18:39:50.183Z,4.32
2022-12-11T18:42:55.504Z,4.18
2022-12-11T18:46:00.847Z,3.87
2022-12-11T18:49:06.693Z,3.38
2022-12-11T18:52:12.126Z,2.83
2022-12-11T18:55:17.566Z,3.10
2022-12-11T18:58:22.896Z,3.72
2022-12-11T19:01:29.772Z,3.83
2022-12-11T19:04:36.124Z,4.25
2022-12-11T19:07:41.643Z,4.49
2022-12-11T19:10:48.069Z,3.31
2022-12-11T19:13:54.887Z,2.38
2022-12-11T19:17:00.400Z,3.40
2022-12-11T19:20:32.278Z,3.97
2022-12-11T19:23:31.868Z,4.47
2022-12-11T19:26:37.375Z,2.96
2022-12-11T19:29:42.750Z,3.08
2022-12-11T19:32:48.122Z,3.87
2022-12-11T19:36:02.350Z,4.01
2022-12-11T19:39:12.803Z,4.42
2022-12-11T19:42:18.602Z,3.99
2022-12-11T19:45:24.022Z,2.33
2022-12-11T19:48:29.760Z,2.78
2022-12-11T19:51:38.551Z,3.36
2022-12-11T19:54:44.100Z,3.03
2022-12-11T19:57:49.451Z,3.13
2022-12-11T20:00:54.858Z,3.40
2022-12-11T20:04:01.002Z,2.97
2022-12-11T20:07:06.309Z,3.23
2022-12-11T20:10:12.157Z,3.38
2022-12-11T20:13:17.648Z,3.85
2022-12-11T20:16:46.348Z,3.21
2022-12-11T20:19:49.820Z,3.13
2022-12-11T20:22:55.642Z,3.26
2022-12-11T20:26:01.115Z,3.39
2022-12-11T20:29:08.506Z,3.26
2022-12-11T20:32:13.861Z,2.83
2022-12-11T20:35:19.880Z,3.68
2022-12-11T20:38:28.735Z,3.54
2022-12-11T20:41:36.672Z,3.75
2022-12-11T20:44:47.279Z,3.27
2022-12-11T20:47:54.773Z,2.94
2022-12-11T20:51:04.619Z,3.16
2022-12-11T20:54:09.888Z,3.11
2022-12-11T20:57:16.562Z,3.19
2022-12-11T21:00:25.019Z,3.53
2022-12-11T21:03:31.577Z,3.53
2022-12-11T21:06:38.826Z,3.66
2022-12-11T21:09:44.319Z,3.42
2022-12-11T21:12:49.537Z,3.32
2022-12-11T21:15:57.061Z,3.55
2022-12-11T21:19:02.811Z,3.37
2022-12-11T21:22:08.254Z,3.83
2022-12-11T21:25:14.001Z,3.29
2022-12-11T21:28:19.861Z,3.48
2022-12-11T21:31:25.255Z,2.85
2022-12-11T21:34:30.624Z,2.77
2022-12-11T21:37:36.174Z,2.85
2022-12-11T21:40:41.996Z,2.39
2022-12-11T21:44:40.860Z,2.77
2022-12-11T21:47:13.334Z,2.55
2022-12-11T21:50:18.730Z,2.92
2022-12-11T21:53:24.153Z,2.83
2022-12-11T21:56:31.752Z,2.79
2022-12-11T21:59:37.241Z,2.63
2022-12-11T22:02:42.763Z,2.88
2022-12-11T22:05:48.444Z,2.79
2022-12-11T22:08:53.663Z,2.96
2022-12-11T22:11:59.386Z,3.14
2022-12-11T22:15:05.324Z,2.85
2022-12-11T22:18:10.761Z,2.45
2022-12-11T22:21:16.243Z,2.74
2022-12-11T22:24:21.592Z,2.47
2022-12-11T22:27:27.130Z,2.76
2022-12-11T22:30:33.113Z,3.06
2022-12-11T22:33:38.701Z,2.91
2022-12-11T22:36:43.999Z,2.98
2022-12-11T22:39:49.555Z,3.15
2022-12-11T22:42:55.249Z,3.26
2022-12-11T22:46:01.033Z,2.55
2022-12-11T22:49:06.405Z,2.34
2022-12-11T22:52:11.768Z,2.48
2022-12-11T22:55:17.518Z,2.39
2022-12-11T22:58:22.963Z,1.82
2022-12-11T23:01:28.511Z,1.67
2022-12-11T23:04:33.877Z,1.94
2022-12-11T23:07:39.472Z,1.70
2022-12-11T23:10:44.939Z,1.86
2022-12-11T23:13:50.490Z,1.55
2022-12-11T23:16:55.914Z,1.09
2022-12-11T23:20:03.721Z,1.33
2022-12-11T23:23:08.996Z,1.47
2022-12-11T23:26:15.021Z,1.82
2022-12-11T23:29:20.873Z,1.31
2022-12-11T23:32:26.268Z,1.26
2022-12-11T23:35:31.498Z,1.40
2022-12-11T23:38:37.404Z,1.20
2022-12-11T23:41:42.549Z,1.17
2022-12-11T23:44:47.785Z,1.26
2022-12-11T23:47:53.133Z,1.22
2022-12-11T23:51:00.736Z,0.91
2022-12-11T23:54:06.283Z,0.96
2022-12-11T23:57:11.556Z,1.03
